sensor_id;sensor_type;location;lat;lon;timestamp;P1;durP1;ratioP1;P2;durP2;ratioP2
15155;SDS011;7678;50.058;8.306;2022-07-09T00:00:49;3.87;;;1.87;;
15155;SDS011;7678;50.058;8.306;2022-07-09T00:03:18;3.13;;;1.60;;
15155;SDS011;7678;50.058;8.306;2022-07-09T00:05:47;2.43;;;1.87;;
15155;SDS011;7678;50.058;8.306;2022-07-09T00:08:17;6.37;;;2.00;;
15155;SDS011;7678;50.058;8.306;2022-07-09T00:10:48;2.90;;;1.90;;
15155;SDS011;7678;50.058;8.306;2022-07-09T00:13:18;3.63;;;1.93;;
15155;SDS011;7678;50.058;8.306;2022-07-09T00:15:47;2.83;;;2.07;;
15155;SDS011;7678;50.058;8.306;2022-07-09T00:18:16;3.73;;;2.10;;
15155;SDS011;7678;50.058;8.306;2022-07-09T00:20:49;4.60;;;2.00;;
15155;SDS011;7678;50.058;8.306;2022-07-09T00:23:19;4.00;;;2.10;;
15155;SDS011;7678;50.058;8.306;2022-07-09T00:25:49;2.87;;;1.97;;
15155;SDS011;7678;50.058;8.306;2022-07-09T00:28:19;4.80;;;2.10;;
15155;SDS011;7678;50.058;8.306;2022-07-09T00:30:47;5.60;;;2.00;;
15155;SDS011;7678;50.058;8.306;2022-07-09T00:33:16;3.73;;;2.00;;
15155;SDS011;7678;50.058;8.306;2022-07-09T00:35:45;2.00;;;1.70;;
15155;SDS011;7678;50.058;8.306;2022-07-09T00:38:13;4.33;;;1.90;;
15155;SDS011;7678;50.058;8.306;2022-07-09T00:40:42;4.27;;;2.20;;
15155;SDS011;7678;50.058;8.306;2022-07-09T00:43:18;3.63;;;2.27;;
15155;SDS011;7678;50.058;8.306;2022-07-09T00:45:50;3.67;;;2.30;;
15155;SDS011;7678;50.058;8.306;2022-07-09T00:48:20;3.90;;;2.20;;
15155;SDS011;7678;50.058;8.306;2022-07-09T00:50:49;4.07;;;2.70;;
15155;SDS011;7678;50.058;8.306;2022-07-09T00:53:18;4.10;;;2.23;;
15155;SDS011;7678;50.058;8.306;2022-07-09T00:55:51;4.40;;;2.37;;
15155;SDS011;7678;50.058;8.306;2022-07-09T00:58:23;4.80;;;2.20;;
15155;SDS011;7678;50.058;8.306;2022-07-09T01:00:52;4.17;;;2.47;;
15155;SDS011;7678;50.058;8.306;2022-07-09T01:03:23;4.93;;;2.43;;
15155;SDS011;7678;50.058;8.306;2022-07-09T01:05:51;4.63;;;2.27;;
15155;SDS011;7678;50.058;8.306;2022-07-09T01:08:22;2.53;;;2.13;;
15155;SDS011;7678;50.058;8.306;2022-07-09T01:10:51;3.23;;;2.30;;
15155;SDS011;7678;50.058;8.306;2022-07-09T01:13:20;4.73;;;2.80;;
15155;SDS011;7678;50.058;8.306;2022-07-09T01:15:51;5.03;;;3.00;;
15155;SDS011;7678;50.058;8.306;2022-07-09T01:18:20;3.37;;;2.23;;
15155;SDS011;7678;50.058;8.306;2022-07-09T01:20:51;4.47;;;2.20;;
15155;SDS011;7678;50.058;8.306;2022-07-09T01:23:20;2.87;;;2.30;;
15155;SDS011;7678;50.058;8.306;2022-07-09T01:25:50;3.47;;;2.40;;
15155;SDS011;7678;50.058;8.306;2022-07-09T01:28:19;5.20;;;2.40;;
15155;SDS011;7678;50.058;8.306;2022-07-09T01:30:48;4.17;;;2.33;;
15155;SDS011;7678;50.058;8.306;2022-07-09T01:33:16;2.60;;;2.30;;
15155;SDS011;7678;50.058;8.306;2022-07-09T01:35:44;4.03;;;2.53;;
15155;SDS011;7678;50.058;8.306;2022-07-09T01:38:14;3.87;;;2.33;;
15155;SDS011;7678;50.058;8.306;2022-07-09T01:40:43;3.27;;;2.30;;
15155;SDS011;7678;50.058;8.306;2022-07-09T01:43:12;3.63;;;2.20;;
15155;SDS011;7678;50.058;8.306;2022-07-09T01:45:41;3.17;;;2.47;;
15155;SDS011;7678;50.058;8.306;2022-07-09T01:48:10;4.77;;;2.17;;
15155;SDS011;7678;50.058;8.306;2022-07-09T01:50:39;3.80;;;2.40;;
15155;SDS011;7678;50.058;8.306;2022-07-09T01:53:09;3.37;;;2.30;;
15155;SDS011;7678;50.058;8.306;2022-07-09T01:55:39;3.37;;;2.40;;
15155;SDS011;7678;50.058;8.306;2022-07-09T01:58:08;3.63;;;2.50;;
15155;SDS011;7678;50.058;8.306;2022-07-09T02:00:38;3.30;;;2.57;;
15155;SDS011;7678;50.058;8.306;2022-07-09T02:03:07;5.00;;;2.80;;
15155;SDS011;7678;50.058;8.306;2022-07-09T02:05:37;4.63;;;2.93;;
15155;SDS011;7678;50.058;8.306;2022-07-09T02:08:06;5.50;;;2.97;;
15155;SDS011;7678;50.058;8.306;2022-07-09T02:10:35;3.37;;;2.87;;
15155;SDS011;7678;50.058;8.306;2022-07-09T02:13:06;6.10;;;2.90;;
15155;SDS011;7678;50.058;8.306;2022-07-09T02:15:35;3.77;;;2.83;;
15155;SDS011;7678;50.058;8.306;2022-07-09T02:18:04;3.43;;;3.00;;
15155;SDS011;7678;50.058;8.306;2022-07-09T02:20:33;6.20;;;2.80;;
15155;SDS011;7678;50.058;8.306;2022-07-09T02:23:02;4.60;;;3.00;;
15155;SDS011;7678;50.058;8.306;2022-07-09T02:25:30;5.00;;;3.50;;
15155;SDS011;7678;50.058;8.306;2022-07-09T02:27:59;6.00;;;3.20;;
15155;SDS011;7678;50.058;8.306;2022-07-09T02:30:29;5.07;;;3.60;;
15155;SDS011;7678;50.058;8.306;2022-07-09T02:33:01;5.30;;;3.50;;
15155;SDS011;7678;50.058;8.306;2022-07-09T02:35:30;5.60;;;3.20;;
15155;SDS011;7678;50.058;8.306;2022-07-09T02:37:58;3.93;;;3.10;;
15155;SDS011;7678;50.058;8.306;2022-07-09T02:40:27;6.37;;;3.30;;
15155;SDS011;7678;50.058;8.306;2022-07-09T02:42:56;4.70;;;3.10;;
15155;SDS011;7678;50.058;8.306;2022-07-09T02:45:25;5.97;;;3.40;;
15155;SDS011;7678;50.058;8.306;2022-07-09T02:47:56;4.47;;;3.03;;
15155;SDS011;7678;50.058;8.306;2022-07-09T02:50:25;3.37;;;2.90;;
15155;SDS011;7678;50.058;8.306;2022-07-09T02:52:53;6.83;;;3.07;;
15155;SDS011;7678;50.058;8.306;2022-07-09T02:55:22;4.17;;;3.07;;
15155;SDS011;7678;50.058;8.306;2022-07-09T02:57:51;4.23;;;3.00;;
15155;SDS011;7678;50.058;8.306;2022-07-09T03:00:19;4.10;;;3.23;;
15155;SDS011;7678;50.058;8.306;2022-07-09T03:02:48;4.03;;;3.10;;
15155;SDS011;7678;50.058;8.306;2022-07-09T03:05:19;3.37;;;3.07;;
15155;SDS011;7678;50.058;8.306;2022-07-09T03:07:48;4.20;;;3.10;;
15155;SDS011;7678;50.058;8.306;2022-07-09T03:10:16;5.03;;;3.40;;
15155;SDS011;7678;50.058;8.306;2022-07-09T03:12:47;5.10;;;3.40;;
15155;SDS011;7678;50.058;8.306;2022-07-09T03:15:16;5.10;;;3.07;;
15155;SDS011;7678;50.058;8.306;2022-07-09T03:17:45;4.23;;;3.40;;
15155;SDS011;7678;50.058;8.306;2022-07-09T03:20:16;3.33;;;3.00;;
15155;SDS011;7678;50.058;8.306;2022-07-09T03:22:46;5.23;;;3.10;;
15155;SDS011;7678;50.058;8.306;2022-07-09T03:25:14;3.47;;;2.90;;
15155;SDS011;7678;50.058;8.306;2022-07-09T03:27:43;4.50;;;2.83;;
15155;SDS011;7678;50.058;8.306;2022-07-09T03:30:12;4.10;;;3.10;;
15155;SDS011;7678;50.058;8.306;2022-07-09T03:32:41;3.73;;;2.63;;
15155;SDS011;7678;50.058;8.306;2022-07-09T03:35:09;4.03;;;3.30;;
15155;SDS011;7678;50.058;8.306;2022-07-09T03:37:39;3.83;;;3.07;;
15155;SDS011;7678;50.058;8.306;2022-07-09T03:40:09;5.63;;;2.93;;
15155;SDS011;7678;50.058;8.306;2022-07-09T03:42:39;3.20;;;2.90;;
15155;SDS011;7678;50.058;8.306;2022-07-09T03:45:08;3.23;;;2.93;;
15155;SDS011;7678;50.058;8.306;2022-07-09T03:47:36;4.73;;;3.20;;
15155;SDS011;7678;50.058;8.306;2022-07-09T03:50:06;4.43;;;3.67;;
15155;SDS011;7678;50.058;8.306;2022-07-09T03:52:35;4.53;;;3.60;;
15155;SDS011;7678;50.058;8.306;2022-07-09T03:55:04;4.07;;;3.20;;
15155;SDS011;7678;50.058;8.306;2022-07-09T03:57:35;3.60;;;2.97;;
15155;SDS011;7678;50.058;8.306;2022-07-09T04:00:09;3.50;;;3.20;;
15155;SDS011;7678;50.058;8.306;2022-07-09T04:02:38;3.70;;;2.80;;
15155;SDS011;7678;50.058;8.306;2022-07-09T04:05:07;5.30;;;3.10;;
15155;SDS011;7678;50.058;8.306;2022-07-09T04:07:36;3.87;;;3.10;;
15155;SDS011;7678;50.058;8.306;2022-07-09T04:10:06;4.60;;;3.30;;
15155;SDS011;7678;50.058;8.306;2022-07-09T04:12:37;4.20;;;3.53;;
15155;SDS011;7678;50.058;8.306;2022-07-09T04:15:06;3.83;;;3.43;;
15155;SDS011;7678;50.058;8.306;2022-07-09T04:17:35;4.47;;;3.30;;
15155;SDS011;7678;50.058;8.306;2022-07-09T04:20:05;4.50;;;3.00;;
15155;SDS011;7678;50.058;8.306;2022-07-09T04:22:34;5.30;;;3.27;;
15155;SDS011;7678;50.058;8.306;2022-07-09T04:25:03;3.30;;;3.00;;
15155;SDS011;7678;50.058;8.306;2022-07-09T04:27:33;3.40;;;2.90;;
15155;SDS011;7678;50.058;8.306;2022-07-09T04:30:05;5.30;;;3.37;;
15155;SDS011;7678;50.058;8.306;2022-07-09T04:32:35;4.63;;;3.30;;
15155;SDS011;7678;50.058;8.306;2022-07-09T04:35:04;4.80;;;3.37;;
15155;SDS011;7678;50.058;8.306;2022-07-09T04:37:34;4.67;;;3.10;;
15155;SDS011;7678;50.058;8.306;2022-07-09T04:40:02;3.30;;;3.00;;
15155;SDS011;7678;50.058;8.306;2022-07-09T04:42:31;4.63;;;3.60;;
15155;SDS011;7678;50.058;8.306;2022-07-09T04:44:59;5.07;;;3.20;;
15155;SDS011;7678;50.058;8.306;2022-07-09T04:47:29;5.87;;;3.17;;
15155;SDS011;7678;50.058;8.306;2022-07-09T04:49:57;3.07;;;2.77;;
15155;SDS011;7678;50.058;8.306;2022-07-09T04:52:25;5.07;;;3.00;;
15155;SDS011;7678;50.058;8.306;2022-07-09T04:54:54;3.53;;;3.00;;
15155;SDS011;7678;50.058;8.306;2022-07-09T04:57:23;4.50;;;3.17;;
15155;SDS011;7678;50.058;8.306;2022-07-09T04:59:51;3.43;;;3.00;;
15155;SDS011;7678;50.058;8.306;2022-07-09T05:02:19;6.57;;;3.40;;
15155;SDS011;7678;50.058;8.306;2022-07-09T05:04:49;3.60;;;2.90;;
15155;SDS011;7678;50.058;8.306;2022-07-09T05:07:17;4.37;;;2.80;;
15155;SDS011;7678;50.058;8.306;2022-07-09T05:09:46;5.83;;;3.30;;
15155;SDS011;7678;50.058;8.306;2022-07-09T05:12:15;7.53;;;4.07;;
15155;SDS011;7678;50.058;8.306;2022-07-09T05:14:43;5.37;;;3.07;;
15155;SDS011;7678;50.058;8.306;2022-07-09T05:17:11;3.27;;;2.97;;
15155;SDS011;7678;50.058;8.306;2022-07-09T05:19:40;3.60;;;3.30;;
15155;SDS011;7678;50.058;8.306;2022-07-09T05:22:10;3.40;;;3.10;;
15155;SDS011;7678;50.058;8.306;2022-07-09T05:24:38;5.23;;;3.27;;
15155;SDS011;7678;50.058;8.306;2022-07-09T05:27:06;7.33;;;3.50;;
15155;SDS011;7678;50.058;8.306;2022-07-09T05:29:36;4.37;;;3.40;;
15155;SDS011;7678;50.058;8.306;2022-07-09T05:32:05;3.93;;;3.40;;
15155;SDS011;7678;50.058;8.306;2022-07-09T05:34:34;5.70;;;4.13;;
15155;SDS011;7678;50.058;8.306;2022-07-09T05:37:02;5.50;;;3.20;;
15155;SDS011;7678;50.058;8.306;2022-07-09T05:39:40;7.97;;;3.50;;
15155;SDS011;7678;50.058;8.306;2022-07-09T05:42:08;4.23;;;3.20;;
15155;SDS011;7678;50.058;8.306;2022-07-09T05:44:36;7.47;;;3.43;;
15155;SDS011;7678;50.058;8.306;2022-07-09T05:47:05;4.87;;;3.57;;
15155;SDS011;7678;50.058;8.306;2022-07-09T05:49:33;5.07;;;3.27;;
15155;SDS011;7678;50.058;8.306;2022-07-09T05:52:02;6.53;;;3.67;;
15155;SDS011;7678;50.058;8.306;2022-07-09T05:54:30;5.40;;;3.10;;
15155;SDS011;7678;50.058;8.306;2022-07-09T05:57:00;2.80;;;2.60;;
15155;SDS011;7678;50.058;8.306;2022-07-09T05:59:29;6.40;;;3.10;;
15155;SDS011;7678;50.058;8.306;2022-07-09T06:01:57;5.33;;;3.10;;
15155;SDS011;7678;50.058;8.306;2022-07-09T06:04:25;5.17;;;3.03;;
15155;SDS011;7678;50.058;8.306;2022-07-09T06:06:54;5.70;;;3.33;;
15155;SDS011;7678;50.058;8.306;2022-07-09T06:09:22;7.77;;;3.37;;
15155;SDS011;7678;50.058;8.306;2022-07-09T06:11:50;5.10;;;3.43;;
15155;SDS011;7678;50.058;8.306;2022-07-09T06:14:19;6.10;;;3.40;;
15155;SDS011;7678;50.058;8.306;2022-07-09T06:16:52;3.57;;;3.00;;
15155;SDS011;7678;50.058;8.306;2022-07-09T06:19:22;4.77;;;2.90;;
15155;SDS011;7678;50.058;8.306;2022-07-09T06:21:51;5.73;;;3.23;;
15155;SDS011;7678;50.058;8.306;2022-07-09T06:24:20;3.50;;;2.90;;
15155;SDS011;7678;50.058;8.306;2022-07-09T06:26:50;4.33;;;3.00;;
15155;SDS011;7678;50.058;8.306;2022-07-09T06:29:22;5.47;;;2.60;;
15155;SDS011;7678;50.058;8.306;2022-07-09T06:31:51;5.03;;;3.00;;
15155;SDS011;7678;50.058;8.306;2022-07-09T06:34:19;5.80;;;2.83;;
15155;SDS011;7678;50.058;8.306;2022-07-09T06:36:47;5.13;;;2.90;;
15155;SDS011;7678;50.058;8.306;2022-07-09T06:39:16;4.87;;;2.53;;
15155;SDS011;7678;50.058;8.306;2022-07-09T06:42:04;5.50;;;3.03;;
15155;SDS011;7678;50.058;8.306;2022-07-09T06:44:34;7.03;;;2.77;;
15155;SDS011;7678;50.058;8.306;2022-07-09T06:47:03;5.37;;;2.50;;
15155;SDS011;7678;50.058;8.306;2022-07-09T06:49:32;6.50;;;2.60;;
15155;SDS011;7678;50.058;8.306;2022-07-09T06:52:01;5.87;;;2.83;;
15155;SDS011;7678;50.058;8.306;2022-07-09T06:54:30;6.20;;;3.50;;
15155;SDS011;7678;50.058;8.306;2022-07-09T06:56:58;6.87;;;3.20;;
15155;SDS011;7678;50.058;8.306;2022-07-09T06:59:32;6.40;;;2.70;;
15155;SDS011;7678;50.058;8.306;2022-07-09T07:02:01;6.57;;;2.70;;
15155;SDS011;7678;50.058;8.306;2022-07-09T07:04:33;5.63;;;3.17;;
15155;SDS011;7678;50.058;8.306;2022-07-09T07:07:07;5.73;;;2.53;;
15155;SDS011;7678;50.058;8.306;2022-07-09T07:10:05;4.87;;;3.20;;
15155;SDS011;7678;50.058;8.306;2022-07-09T07:17:13;4.83;;;2.87;;
15155;SDS011;7678;50.058;8.306;2022-07-09T07:20:19;7.63;;;2.80;;
15155;SDS011;7678;50.058;8.306;2022-07-09T07:23:05;6.77;;;2.80;;
15155;SDS011;7678;50.058;8.306;2022-07-09T07:59:22;4.27;;;2.80;;
15155;SDS011;7678;50.058;8.306;2022-07-09T08:01:56;5.37;;;3.33;;
15155;SDS011;7678;50.058;8.306;2022-07-09T08:04:25;4.43;;;3.47;;
15155;SDS011;7678;50.058;8.306;2022-07-09T08:07:00;5.40;;;3.13;;
15155;SDS011;7678;50.058;8.306;2022-07-09T08:09:28;5.13;;;2.73;;
15155;SDS011;7678;50.058;8.306;2022-07-09T08:12:00;4.40;;;2.93;;
15155;SDS011;7678;50.058;8.306;2022-07-09T08:17:14;3.97;;;2.23;;
15155;SDS011;7678;50.058;8.306;2022-07-09T08:19:42;3.53;;;2.33;;
15155;SDS011;7678;50.058;8.306;2022-07-09T08:22:20;4.50;;;2.70;;
15155;SDS011;7678;50.058;8.306;2022-07-09T08:24:49;5.63;;;2.13;;
15155;SDS011;7678;50.058;8.306;2022-07-09T08:27:20;4.53;;;2.00;;
15155;SDS011;7678;50.058;8.306;2022-07-09T08:29:52;3.30;;;1.97;;
15155;SDS011;7678;50.058;8.306;2022-07-09T08:32:29;3.63;;;1.93;;
15155;SDS011;7678;50.058;8.306;2022-07-09T08:34:59;3.97;;;2.07;;
15155;SDS011;7678;50.058;8.306;2022-07-09T08:37:27;4.43;;;2.53;;
15155;SDS011;7678;50.058;8.306;2022-07-09T08:39:56;4.53;;;2.10;;
15155;SDS011;7678;50.058;8.306;2022-07-09T08:42:25;3.73;;;1.90;;
15155;SDS011;7678;50.058;8.306;2022-07-09T08:44:56;3.47;;;1.80;;
15155;SDS011;7678;50.058;8.306;2022-07-09T08:47:29;5.93;;;2.00;;
15155;SDS011;7678;50.058;8.306;2022-07-09T08:50:00;6.57;;;1.90;;
15155;SDS011;7678;50.058;8.306;2022-07-09T08:52:35;5.57;;;1.70;;
15155;SDS011;7678;50.058;8.306;2022-07-09T08:55:20;2.70;;;1.60;;
15155;SDS011;7678;50.058;8.306;2022-07-09T08:57:50;4.40;;;1.87;;
15155;SDS011;7678;50.058;8.306;2022-07-09T09:00:21;5.57;;;1.70;;
15155;SDS011;7678;50.058;8.306;2022-07-09T09:02:50;5.80;;;1.60;;
15155;SDS011;7678;50.058;8.306;2022-07-09T09:05:19;3.87;;;1.57;;
15155;SDS011;7678;50.058;8.306;2022-07-09T09:07:49;3.20;;;1.30;;
15155;SDS011;7678;50.058;8.306;2022-07-09T09:10:22;3.40;;;1.80;;
15155;SDS011;7678;50.058;8.306;2022-07-09T09:13:16;3.30;;;1.73;;
15155;SDS011;7678;50.058;8.306;2022-07-09T09:16:05;1.80;;;1.30;;
15155;SDS011;7678;50.058;8.306;2022-07-09T09:18:39;3.10;;;1.20;;
15155;SDS011;7678;50.058;8.306;2022-07-09T09:21:23;1.77;;;1.17;;
15155;SDS011;7678;50.058;8.306;2022-07-09T09:23:55;3.00;;;1.20;;
15155;SDS011;7678;50.058;8.306;2022-07-09T09:26:26;1.00;;;0.90;;
15155;SDS011;7678;50.058;8.306;2022-07-09T09:28:56;1.53;;;0.80;;
15155;SDS011;7678;50.058;8.306;2022-07-09T09:31:27;0.70;;;0.70;;
15155;SDS011;7678;50.058;8.306;2022-07-09T09:34:09;1.43;;;0.70;;
15155;SDS011;7678;50.058;8.306;2022-07-09T09:36:40;1.33;;;0.90;;
15155;SDS011;7678;50.058;8.306;2022-07-09T09:39:13;1.57;;;1.00;;
15155;SDS011;7678;50.058;8.306;2022-07-09T09:41:58;3.33;;;1.00;;
15155;SDS011;7678;50.058;8.306;2022-07-09T09:44:38;1.93;;;1.20;;
15155;SDS011;7678;50.058;8.306;2022-07-09T09:47:20;3.13;;;1.50;;
15155;SDS011;7678;50.058;8.306;2022-07-09T09:49:52;2.73;;;1.30;;
15155;SDS011;7678;50.058;8.306;2022-07-09T09:52:24;2.13;;;1.20;;
15155;SDS011;7678;50.058;8.306;2022-07-09T09:54:53;3.03;;;1.47;;
15155;SDS011;7678;50.058;8.306;2022-07-09T09:57:24;2.03;;;1.30;;
15155;SDS011;7678;50.058;8.306;2022-07-09T09:59:54;3.57;;;1.67;;
15155;SDS011;7678;50.058;8.306;2022-07-09T10:02:26;3.77;;;1.67;;
15155;SDS011;7678;50.058;8.306;2022-07-09T10:05:02;3.07;;;1.70;;
15155;SDS011;7678;50.058;8.306;2022-07-09T10:07:37;5.13;;;1.67;;
15155;SDS011;7678;50.058;8.306;2022-07-09T10:13:48;4.47;;;1.63;;
15155;SDS011;7678;50.058;8.306;2022-07-09T10:16:19;1.60;;;1.50;;
15155;SDS011;7678;50.058;8.306;2022-07-09T10:19:00;1.67;;;1.47;;
15155;SDS011;7678;50.058;8.306;2022-07-09T10:21:35;3.20;;;1.60;;
15155;SDS011;7678;50.058;8.306;2022-07-09T10:24:30;2.13;;;1.53;;
15155;SDS011;7678;50.058;8.306;2022-07-09T10:29:06;7.23;;;1.63;;
15155;SDS011;7678;50.058;8.306;2022-07-09T10:31:19;2.90;;;1.83;;
15155;SDS011;7678;50.058;8.306;2022-07-09T10:44:12;3.03;;;1.80;;
15155;SDS011;7678;50.058;8.306;2022-07-09T10:49:43;2.13;;;1.50;;
15155;SDS011;7678;50.058;8.306;2022-07-09T10:51:35;1.67;;;1.50;;
15155;SDS011;7678;50.058;8.306;2022-07-09T10:58:15;2.23;;;1.40;;
15155;SDS011;7678;50.058;8.306;2022-07-09T11:56:20;2.17;;;1.53;;
15155;SDS011;7678;50.058;8.306;2022-07-09T11:59:37;1.77;;;1.17;;
15155;SDS011;7678;50.058;8.306;2022-07-09T12:03:30;1.43;;;1.27;;
15155;SDS011;7678;50.058;8.306;2022-07-09T12:06:46;1.57;;;1.30;;
15155;SDS011;7678;50.058;8.306;2022-07-09T12:09:15;1.47;;;1.37;;
15155;SDS011;7678;50.058;8.306;2022-07-09T12:11:58;3.23;;;1.40;;
15155;SDS011;7678;50.058;8.306;2022-07-09T12:14:38;1.57;;;1.00;;
15155;SDS011;7678;50.058;8.306;2022-07-09T12:17:18;2.13;;;1.30;;
15155;SDS011;7678;50.058;8.306;2022-07-09T12:20:15;1.70;;;1.20;;
15155;SDS011;7678;50.058;8.306;2022-07-09T12:23:34;2.23;;;1.30;;
15155;SDS011;7678;50.058;8.306;2022-07-09T12:26:11;1.43;;;1.17;;
15155;SDS011;7678;50.058;8.306;2022-07-09T12:31:39;4.13;;;1.30;;
15155;SDS011;7678;50.058;8.306;2022-07-09T12:34:32;4.10;;;1.30;;
15155;SDS011;7678;50.058;8.306;2022-07-09T12:37:05;1.90;;;1.10;;
15155;SDS011;7678;50.058;8.306;2022-07-09T12:39:37;1.57;;;1.13;;
15155;SDS011;7678;50.058;8.306;2022-07-09T12:42:16;1.87;;;1.07;;
15155;SDS011;7678;50.058;8.306;2022-07-09T12:44:54;1.23;;;1.00;;
15155;SDS011;7678;50.058;8.306;2022-07-09T12:47:43;2.40;;;1.70;;
15155;SDS011;7678;50.058;8.306;2022-07-09T12:50:15;2.83;;;1.60;;
15155;SDS011;7678;50.058;8.306;2022-07-09T12:52:45;1.40;;;1.10;;
15155;SDS011;7678;50.058;8.306;2022-07-09T12:55:33;3.80;;;1.23;;
15155;SDS011;7678;50.058;8.306;2022-07-09T12:58:24;2.00;;;1.20;;
15155;SDS011;7678;50.058;8.306;2022-07-09T13:04:30;1.43;;;0.90;;
15155;SDS011;7678;50.058;8.306;2022-07-09T13:07:00;2.00;;;1.30;;
15155;SDS011;7678;50.058;8.306;2022-07-09T13:09:53;1.63;;;1.07;;
15155;SDS011;7678;50.058;8.306;2022-07-09T13:12:22;1.40;;;1.27;;
15155;SDS011;7678;50.058;8.306;2022-07-09T13:15:30;1.40;;;1.00;;
15155;SDS011;7678;50.058;8.306;2022-07-09T13:22:00;2.47;;;1.03;;
15155;SDS011;7678;50.058;8.306;2022-07-09T13:27:44;1.60;;;1.30;;
15155;SDS011;7678;50.058;8.306;2022-07-09T13:31:03;1.73;;;1.13;;
15155;SDS011;7678;50.058;8.306;2022-07-09T13:34:00;1.50;;;1.10;;
15155;SDS011;7678;50.058;8.306;2022-07-09T13:37:20;1.57;;;1.33;;
15155;SDS011;7678;50.058;8.306;2022-07-09T13:40:20;1.77;;;1.37;;
15155;SDS011;7678;50.058;8.306;2022-07-09T13:43:14;1.70;;;1.30;;
15155;SDS011;7678;50.058;8.306;2022-07-09T13:46:13;1.53;;;1.20;;
15155;SDS011;7678;50.058;8.306;2022-07-09T13:49:12;1.90;;;1.40;;
15155;SDS011;7678;50.058;8.306;2022-07-09T13:52:02;2.60;;;1.10;;
15155;SDS011;7678;50.058;8.306;2022-07-09T13:54:39;2.30;;;1.30;;
15155;SDS011;7678;50.058;8.306;2022-07-09T13:57:23;1.80;;;1.30;;
15155;SDS011;7678;50.058;8.306;2022-07-09T13:59:59;2.07;;;1.50;;
15155;SDS011;7678;50.058;8.306;2022-07-09T14:02:47;1.30;;;1.20;;
15155;SDS011;7678;50.058;8.306;2022-07-09T14:05:26;1.90;;;1.40;;
15155;SDS011;7678;50.058;8.306;2022-07-09T14:08:19;3.13;;;1.47;;
15155;SDS011;7678;50.058;8.306;2022-07-09T14:13:36;1.67;;;1.23;;
15155;SDS011;7678;50.058;8.306;2022-07-09T14:16:09;1.63;;;1.37;;
15155;SDS011;7678;50.058;8.306;2022-07-09T14:18:43;2.10;;;1.23;;
15155;SDS011;7678;50.058;8.306;2022-07-09T14:21:14;2.47;;;1.40;;
15155;SDS011;7678;50.058;8.306;2022-07-09T14:23:45;2.37;;;1.57;;
15155;SDS011;7678;50.058;8.306;2022-07-09T14:26:19;4.27;;;1.50;;
15155;SDS011;7678;50.058;8.306;2022-07-09T14:28:56;1.50;;;1.37;;
15155;SDS011;7678;50.058;8.306;2022-07-09T14:31:29;2.10;;;1.30;;
15155;SDS011;7678;50.058;8.306;2022-07-09T14:34:01;3.67;;;1.50;;
15155;SDS011;7678;50.058;8.306;2022-07-09T14:36:30;1.93;;;1.60;;
15155;SDS011;7678;50.058;8.306;2022-07-09T14:39:05;2.10;;;1.40;;
15155;SDS011;7678;50.058;8.306;2022-07-09T14:41:37;2.00;;;1.40;;
15155;SDS011;7678;50.058;8.306;2022-07-09T14:44:11;2.40;;;1.73;;
15155;SDS011;7678;50.058;8.306;2022-07-09T14:47:07;2.63;;;1.20;;
15155;SDS011;7678;50.058;8.306;2022-07-09T14:50:03;1.40;;;1.30;;
15155;SDS011;7678;50.058;8.306;2022-07-09T14:52:49;1.40;;;1.30;;
15155;SDS011;7678;50.058;8.306;2022-07-09T14:55:31;3.93;;;1.60;;
15155;SDS011;7678;50.058;8.306;2022-07-09T15:02:41;1.57;;;1.33;;
15155;SDS011;7678;50.058;8.306;2022-07-09T15:06:59;2.60;;;1.50;;
15155;SDS011;7678;50.058;8.306;2022-07-09T15:08:19;2.67;;;1.43;;
15155;SDS011;7678;50.058;8.306;2022-07-09T15:10:55;2.03;;;1.43;;
15155;SDS011;7678;50.058;8.306;2022-07-09T15:13:24;1.57;;;1.30;;
15155;SDS011;7678;50.058;8.306;2022-07-09T15:15:56;3.00;;;1.40;;
15155;SDS011;7678;50.058;8.306;2022-07-09T15:21:17;3.33;;;1.70;;
15155;SDS011;7678;50.058;8.306;2022-07-09T15:23:53;3.33;;;1.67;;
15155;SDS011;7678;50.058;8.306;2022-07-09T15:27:13;2.80;;;1.88;;
15155;SDS011;7678;50.058;8.306;2022-07-09T15:29:42;2.67;;;2.00;;
15155;SDS011;7678;50.058;8.306;2022-07-09T15:32:21;3.50;;;2.03;;
15155;SDS011;7678;50.058;8.306;2022-07-09T15:35:01;2.13;;;1.80;;
15155;SDS011;7678;50.058;8.306;2022-07-09T15:37:32;2.30;;;1.77;;
15155;SDS011;7678;50.058;8.306;2022-07-09T15:40:01;2.95;;;1.52;;
15155;SDS011;7678;50.058;8.306;2022-07-09T15:42:31;1.67;;;1.40;;
15155;SDS011;7678;50.058;8.306;2022-07-09T15:45:00;1.63;;;1.43;;
15155;SDS011;7678;50.058;8.306;2022-07-09T15:47:37;3.07;;;1.80;;
15155;SDS011;7678;50.058;8.306;2022-07-09T15:50:19;3.57;;;2.20;;
15155;SDS011;7678;50.058;8.306;2022-07-09T15:52:49;1.80;;;1.60;;
15155;SDS011;7678;50.058;8.306;2022-07-09T15:55:18;3.00;;;1.80;;
15155;SDS011;7678;50.058;8.306;2022-07-09T15:57:47;3.83;;;2.00;;
15155;SDS011;7678;50.058;8.306;2022-07-09T16:00:16;3.07;;;2.43;;
15155;SDS011;7678;50.058;8.306;2022-07-09T16:02:50;3.00;;;2.45;;
15155;SDS011;7678;50.058;8.306;2022-07-09T16:05:31;1.97;;;1.77;;
15155;SDS011;7678;50.058;8.306;2022-07-09T16:08:01;1.90;;;1.60;;
15155;SDS011;7678;50.058;8.306;2022-07-09T16:10:29;2.72;;;1.80;;
15155;SDS011;7678;50.058;8.306;2022-07-09T16:12:58;2.47;;;1.53;;
15155;SDS011;7678;50.058;8.306;2022-07-09T16:15:26;2.00;;;1.70;;
15155;SDS011;7678;50.058;8.306;2022-07-09T16:17:55;4.37;;;1.90;;
15155;SDS011;7678;50.058;8.306;2022-07-09T16:20:24;3.63;;;2.10;;
15155;SDS011;7678;50.058;8.306;2022-07-09T16:22:55;2.40;;;1.70;;
15155;SDS011;7678;50.058;8.306;2022-07-09T16:25:25;2.77;;;2.07;;
15155;SDS011;7678;50.058;8.306;2022-07-09T16:27:54;3.07;;;2.00;;
15155;SDS011;7678;50.058;8.306;2022-07-09T16:30:22;2.20;;;2.00;;
15155;SDS011;7678;50.058;8.306;2022-07-09T16:32:51;3.03;;;1.80;;
15155;SDS011;7678;50.058;8.306;2022-07-09T16:35:20;3.03;;;2.10;;
15155;SDS011;7678;50.058;8.306;2022-07-09T16:37:48;1.80;;;1.70;;
15155;SDS011;7678;50.058;8.306;2022-07-09T16:40:18;3.27;;;2.20;;
15155;SDS011;7678;50.058;8.306;2022-07-09T16:42:46;3.30;;;2.70;;
15155;SDS011;7678;50.058;8.306;2022-07-09T16:45:15;3.13;;;2.40;;
15155;SDS011;7678;50.058;8.306;2022-07-09T16:47:43;2.30;;;2.10;;
15155;SDS011;7678;50.058;8.306;2022-07-09T16:50:11;3.60;;;2.37;;
15155;SDS011;7678;50.058;8.306;2022-07-09T16:52:40;4.03;;;2.40;;
15155;SDS011;7678;50.058;8.306;2022-07-09T17:35:46;4.60;;;4.20;;
15155;SDS011;7678;50.058;8.306;2022-07-09T18:18:22;3.03;;;2.83;;
15155;SDS011;7678;50.058;8.306;2022-07-09T18:20:52;3.33;;;2.87;;
15155;SDS011;7678;50.058;8.306;2022-07-09T18:23:24;3.77;;;3.07;;
15155;SDS011;7678;50.058;8.306;2022-07-09T18:25:53;4.33;;;3.00;;
15155;SDS011;7678;50.058;8.306;2022-07-09T18:39:07;3.93;;;3.07;;
15155;SDS011;7678;50.058;8.306;2022-07-09T18:41:23;3.50;;;3.00;;
15155;SDS011;7678;50.058;8.306;2022-07-09T18:43:53;3.50;;;3.20;;
15155;SDS011;7678;50.058;8.306;2022-07-09T18:46:37;3.70;;;3.27;;
15155;SDS011;7678;50.058;8.306;2022-07-09T18:49:35;5.83;;;3.27;;
15155;SDS011;7678;50.058;8.306;2022-07-09T18:52:08;4.03;;;3.40;;
15155;SDS011;7678;50.058;8.306;2022-07-09T18:54:43;5.67;;;3.40;;
15155;SDS011;7678;50.058;8.306;2022-07-09T18:57:14;3.57;;;2.97;;
15155;SDS011;7678;50.058;8.306;2022-07-09T18:59:46;3.23;;;2.60;;
15155;SDS011;7678;50.058;8.306;2022-07-09T19:02:22;3.30;;;3.00;;
15155;SDS011;7678;50.058;8.306;2022-07-09T19:04:56;3.57;;;3.27;;
15155;SDS011;7678;50.058;8.306;2022-07-09T19:07:27;2.70;;;2.47;;
15155;SDS011;7678;50.058;8.306;2022-07-09T19:10:04;4.23;;;2.90;;
15155;SDS011;7678;50.058;8.306;2022-07-09T19:12:43;5.53;;;3.70;;
15155;SDS011;7678;50.058;8.306;2022-07-09T19:15:18;3.97;;;3.50;;
15155;SDS011;7678;50.058;8.306;2022-07-09T19:17:47;4.00;;;2.83;;
15155;SDS011;7678;50.058;8.306;2022-07-09T19:20:19;4.20;;;3.57;;
15155;SDS011;7678;50.058;8.306;2022-07-09T19:22:49;4.83;;;3.60;;
15155;SDS011;7678;50.058;8.306;2022-07-09T19:25:18;3.80;;;3.50;;
15155;SDS011;7678;50.058;8.306;2022-07-09T19:27:47;3.97;;;3.23;;
15155;SDS011;7678;50.058;8.306;2022-07-09T19:30:25;3.97;;;3.60;;
15155;SDS011;7678;50.058;8.306;2022-07-09T19:33:27;3.33;;;3.03;;